Time;durP1;ratioP1;P1;durP2;ratioP2;P2;SDS_P1;SDS_P2;PMS_P1;PMS_P2;Temp;Humidity;BMP_temperature;BMP_pressure;BME280_temperature;BME280_humidity;BME280_pressure;Samples;Min_cycle;Max_cycle;Signal;HPM_P1;HPM_P2
2021/04/08 00:01:51;;;;;;;16.48;7.45;;;;;;;;;;4970253;28;20037;-80
2021/04/08 00:04:18;;;;;;;17.67;6.88;;;;;;;;;;4960947;28;20070;-82
2021/04/08 00:39:12;;;;;;;13.00;3.75;;;;;;;;;;4955352;28;20125;-80
2021/04/08 00:41:39;;;;;;;9.88;3.60;;;;;;;;;;4969564;28;20132;-80
2021/04/08 00:44:05;;;;;;;11.85;3.85;;;;;;;;;;4972624;28;20556;-80
2021/04/08 00:46:34;;;;;;;12.80;3.70;;;;;;;;;;4981972;28;20584;-80
2021/04/08 00:49:02;;;;;;;10.07;2.90;;;;;;;;;;4973186;28;20037;-80
2021/04/08 00:51:30;;;;;;;13.35;3.75;;;;;;;;;;4959532;28;20120;-79
2021/04/08 00:53:56;;;;;;;11.50;3.70;;;;;;;;;;4965386;28;20069;-80
2021/04/08 00:56:25;;;;;;;12.30;3.60;;;;;;;;;;4982694;28;20159;-80
2021/04/08 00:58:52;;;;;;;12.55;3.28;;;;;;;;;;4957969;28;20058;-79
2021/04/08 01:01:19;;;;;;;12.27;3.75;;;;;;;;;;4975926;28;20041;-79
2021/04/08 01:03:46;;;;;;;11.68;3.33;;;;;;;;;;4958666;28;20072;-79
2021/04/08 01:06:14;;;;;;;10.45;3.20;;;;;;;;;;4974031;28;20125;-79
2021/04/08 01:08:43;;;;;;;11.52;2.85;;;;;;;;;;5010365;28;20005;-79
2021/04/08 01:11:11;;;;;;;10.68;3.00;;;;;;;;;;4958754;28;20121;-80
2021/04/08 01:13:42;;;;;;;12.60;3.03;;;;;;;;;;4973578;28;20040;-80
2021/04/08 01:16:11;;;;;;;12.35;2.65;;;;;;;;;;4974858;28;20044;-80
2021/04/08 01:19:02;;;;;;;9.82;2.35;;;;;;;;;;4957794;28;20048;-80
2021/04/08 01:21:50;;;;;;;11.02;3.10;;;;;;;;;;4975535;28;20044;-80
2021/04/08 01:24:34;;;;;;;7.32;2.33;;;;;;;;;;4961853;28;20033;-81
2021/04/08 01:27:26;;;;;;;9.32;2.30;;;;;;;;;;4978340;28;20095;-80
2021/04/08 01:30:11;;;;;;;9.65;2.15;;;;;;;;;;4984966;28;20129;-80
2021/04/08 01:32:40;;;;;;;10.45;2.70;;;;;;;;;;4987691;28;20034;-82
2021/04/08 01:35:09;;;;;;;9.32;2.20;;;;;;;;;;4963612;28;20046;-80
2021/04/08 01:37:42;;;;;;;10.32;2.75;;;;;;;;;;4945975;28;20062;-80
2021/04/08 01:40:11;;;;;;;8.95;2.63;;;;;;;;;;4941545;28;20050;-81
2021/04/08 01:42:40;;;;;;;8.32;2.42;;;;;;;;;;4952337;28;20046;-79
2021/04/08 01:45:07;;;;;;;8.77;2.38;;;;;;;;;;4930695;28;20073;-81
2021/04/08 01:47:37;;;;;;;9.73;2.60;;;;;;;;;;4947890;28;20156;-80
2021/04/08 01:50:05;;;;;;;9.77;2.78;;;;;;;;;;4945130;28;20210;-80
2021/04/08 01:52:33;;;;;;;12.35;2.92;;;;;;;;;;4949580;28;20039;-81
2021/04/08 01:55:02;;;;;;;8.45;2.10;;;;;;;;;;4930308;28;21486;-81
2021/04/08 01:57:31;;;;;;;9.85;2.60;;;;;;;;;;4954193;28;20042;-79
2021/04/08 01:59:59;;;;;;;10.32;2.03;;;;;;;;;;4935001;28;20090;-80
2021/04/08 02:02:36;;;;;;;9.65;2.05;;;;;;;;;;4945761;28;20946;-79
2021/04/08 02:05:07;;;;;;;9.20;2.10;;;;;;;;;;4945569;28;20090;-79
2021/04/08 02:07:34;;;;;;;7.72;2.05;;;;;;;;;;4938126;28;20041;-79
2021/04/08 02:10:02;;;;;;;8.65;2.33;;;;;;;;;;4945373;28;20038;-79
2021/04/08 02:12:28;;;;;;;9.45;2.08;;;;;;;;;;4951059;28;20035;-80
2021/04/08 02:14:58;;;;;;;10.13;2.20;;;;;;;;;;4967330;28;20064;-79
2021/04/08 02:17:25;;;;;;;8.50;1.85;;;;;;;;;;4984547;28;20952;-79
2021/04/08 02:19:52;;;;;;;7.40;1.90;;;;;;;;;;4967515;28;20808;-80
2021/04/08 02:22:20;;;;;;;7.22;1.65;;;;;;;;;;4969635;28;20802;-80
2021/04/08 02:24:49;;;;;;;10.05;1.70;;;;;;;;;;4985427;28;20654;-80
2021/04/08 02:27:19;;;;;;;6.82;1.60;;;;;;;;;;4970916;28;20045;-79
2021/04/08 02:29:47;;;;;;;7.10;1.70;;;;;;;;;;4959550;28;20036;-80
2021/04/08 02:32:15;;;;;;;7.70;1.77;;;;;;;;;;4980393;28;20042;-80
2021/04/08 02:34:41;;;;;;;7.38;1.77;;;;;;;;;;4976315;28;20560;-80
2021/04/08 02:37:07;;;;;;;;;;;;;;;;;;4981282;28;20463;-80
2021/04/08 02:39:33;;;;;;;8.55;1.45;;;;;;;;;;4988138;28;19925;-80
2021/04/08 02:42:05;;;;;;;8.15;1.65;;;;;;;;;;4986031;28;20043;-80
2021/04/08 02:44:31;;;;;;;9.35;1.77;;;;;;;;;;4969987;28;20525;-80
2021/04/08 02:46:57;;;;;;;7.38;1.50;;;;;;;;;;4986099;28;20070;-79
2021/04/08 02:49:24;;;;;;;;;;;;;;;;;;4962487;28;20042;-79
2021/04/08 02:52:19;;;;;;;6.68;1.25;;;;;;;;;;4976095;28;19976;-80
2021/04/08 02:54:58;;;;;;;8.13;1.67;;;;;;;;;;4917574;28;20095;-80
2021/04/08 02:57:26;;;;;;;7.15;1.75;;;;;;;;;;4895414;29;20164;-79
2021/04/08 03:00:10;;;;;;;8.95;1.88;;;;;;;;;;4909490;29;20044;-79
2021/04/08 03:02:38;;;;;;;8.80;2.17;;;;;;;;;;4862074;29;20047;-80
2021/04/08 03:05:13;;;;;;;7.32;1.60;;;;;;;;;;4897777;28;20579;-79
2021/04/08 03:07:46;;;;;;;9.10;1.90;;;;;;;;;;4911541;29;20038;-80
2021/04/08 03:10:18;;;;;;;8.18;1.83;;;;;;;;;;4901773;28;20033;-80
2021/04/08 03:12:48;;;;;;;7.65;1.42;;;;;;;;;;4909539;28;20081;-80
2021/04/08 03:15:21;;;;;;;9.20;1.73;;;;;;;;;;4907381;28;20440;-80
2021/04/08 03:17:49;;;;;;;8.20;1.67;;;;;;;;;;4913849;28;20043;-80
2021/04/08 03:20:17;;;;;;;9.68;1.67;;;;;;;;;;4903327;28;20032;-81
2021/04/08 03:22:43;;;;;;;7.65;1.50;;;;;;;;;;4899744;28;20136;-79
2021/04/08 03:25:13;;;;;;;8.73;1.73;;;;;;;;;;4901407;28;20035;-78
2021/04/08 03:27:42;;;;;;;10.40;2.10;;;;;;;;;;4907569;28;20585;-79
2021/04/08 03:30:15;;;;;;;7.68;1.75;;;;;;;;;;4903361;28;20040;-81
2021/04/08 03:32:42;;;;;;;11.50;1.60;;;;;;;;;;4972147;28;20494;-79
2021/04/08 03:35:11;;;;;;;9.23;1.90;;;;;;;;;;4967013;28;20034;-80
2021/04/08 03:37:40;;;;;;;8.45;1.90;;;;;;;;;;4989765;28;20406;-79
2021/04/08 03:40:09;;;;;;;10.50;1.98;;;;;;;;;;4965151;28;20474;-80
2021/04/08 03:42:38;;;;;;;9.20;2.08;;;;;;;;;;4987579;28;20477;-79
2021/04/08 03:45:07;;;;;;;7.65;1.50;;;;;;;;;;4939953;28;20070;-80
2021/04/08 03:47:33;;;;;;;9.93;2.13;;;;;;;;;;4957388;28;20752;-79
2021/04/08 03:50:07;;;;;;;8.18;1.40;;;;;;;;;;4965531;28;20093;-81
2021/04/08 03:52:35;;;;;;;7.47;1.58;;;;;;;;;;4983816;28;20049;-80
2021/04/08 03:55:03;;;;;;;7.55;1.65;;;;;;;;;;4958114;28;20045;-79
2021/04/08 03:57:30;;;;;;;9.10;1.73;;;;;;;;;;4968465;28;20034;-79
2021/04/08 03:59:57;;;;;;;9.25;1.65;;;;;;;;;;4973482;28;20034;-79
2021/04/08 04:02:25;;;;;;;7.43;1.55;;;;;;;;;;4957579;28;21010;-79
2021/04/08 04:04:53;;;;;;;10.18;1.83;;;;;;;;;;4945098;28;20573;-79
2021/04/08 04:07:20;;;;;;;9.52;1.73;;;;;;;;;;4980849;28;20037;-80
2021/04/08 04:09:47;;;;;;;8.82;1.45;;;;;;;;;;4968080;28;20038;-81
2021/04/08 04:12:15;;;;;;;10.00;1.60;;;;;;;;;;4959508;28;20069;-80
2021/04/08 04:14:44;;;;;;;9.32;1.83;;;;;;;;;;4987750;28;20030;-80
2021/04/08 04:17:27;;;;;;;6.95;1.75;;;;;;;;;;4974206;28;20088;-80
2021/04/08 04:19:53;;;;;;;7.63;1.77;;;;;;;;;;4986891;28;20159;-79
2021/04/08 04:22:19;;;;;;;9.70;1.52;;;;;;;;;;4979662;28;20039;-80
2021/04/08 04:24:49;;;;;;;7.22;1.70;;;;;;;;;;4983619;28;20774;-79
2021/04/08 04:27:15;;;;;;;7.30;1.60;;;;;;;;;;4988709;28;20022;-80
2021/04/08 04:29:41;;;;;;;10.18;1.70;;;;;;;;;;4968467;28;20793;-79
2021/04/08 04:32:11;;;;;;;9.57;2.10;;;;;;;;;;4972944;28;20046;-80
2021/04/08 04:34:42;;;;;;;12.25;2.65;;;;;;;;;;4969350;28;20045;-80
2021/04/08 04:37:20;;;;;;;8.70;2.08;;;;;;;;;;4980922;28;20077;-80
2021/04/08 04:39:46;;;;;;;;;;;;;;;;;;4985112;28;20045;-80
2021/04/08 04:42:15;;;;;;;9.93;1.90;;;;;;;;;;4971610;28;19909;-81
2021/04/08 04:44:41;;;;;;;11.73;2.00;;;;;;;;;;4956062;28;20126;-80
2021/04/08 04:47:07;;;;;;;7.25;1.58;;;;;;;;;;4981023;28;20047;-79
2021/04/08 04:49:34;;;;;;;16.60;2.33;;;;;;;;;;4988278;28;20120;-79
2021/04/08 04:52:01;;;;;;;8.48;1.83;;;;;;;;;;4973571;28;20082;-80
2021/04/08 04:54:27;;;;;;;16.73;4.07;;;;;;;;;;4986478;28;20046;-80
2021/04/08 04:56:59;;;;;;;10.50;2.70;;;;;;;;;;4989198;28;20034;-80
2021/04/08 04:59:26;;;;;;;9.45;2.20;;;;;;;;;;4970971;28;20533;-80
2021/04/08 05:01:53;;;;;;;12.73;2.22;;;;;;;;;;4932589;28;21567;-82
2021/04/08 05:04:23;;;;;;;12.35;2.30;;;;;;;;;;4963302;28;20121;-80
2021/04/08 05:06:49;;;;;;;11.27;1.85;;;;;;;;;;4979386;28;20037;-80
2021/04/08 05:09:19;;;;;;;10.70;2.72;;;;;;;;;;4966389;28;20037;-82
2021/04/08 05:11:45;;;;;;;9.55;1.80;;;;;;;;;;4991646;28;20072;-79
2021/04/08 05:14:12;;;;;;;7.20;1.92;;;;;;;;;;4974248;28;20121;-80
2021/04/08 05:16:38;;;;;;;10.65;3.33;;;;;;;;;;4951897;28;20065;-81
2021/04/08 05:19:06;;;;;;;12.05;3.20;;;;;;;;;;4981465;28;20958;-80
2021/04/08 05:21:33;;;;;;;10.02;2.30;;;;;;;;;;4991180;28;20038;-80
2021/04/08 05:24:01;;;;;;;8.88;2.08;;;;;;;;;;4993428;28;20037;-80
2021/04/08 05:26:28;;;;;;;13.70;2.40;;;;;;;;;;4989205;28;20026;-81
2021/04/08 05:28:58;;;;;;;9.40;2.05;;;;;;;;;;4999168;28;20066;-80
2021/04/08 05:31:25;;;;;;;10.77;2.10;;;;;;;;;;4984299;28;20038;-79
2021/04/08 05:33:51;;;;;;;11.20;1.55;;;;;;;;;;4987920;28;20534;-82
2021/04/08 05:36:19;;;;;;;;;;;;;;;;;;4994299;28;20029;-81
2021/04/08 05:38:49;;;;;;;10.30;2.05;;;;;;;;;;4992662;28;19921;-80
2021/04/08 05:41:15;;;;;;;11.68;1.88;;;;;;;;;;4983803;28;20053;-80
2021/04/08 05:43:43;;;;;;;;;;;;;;;;;;4970977;28;20129;-83
2021/04/08 05:46:12;;;;;;;9.50;1.83;;;;;;;;;;4984648;28;20699;-80
2021/04/08 05:48:39;;;;;;;10.93;2.08;;;;;;;;;;4980230;28;20052;-81
2021/04/08 05:51:08;;;;;;;8.35;2.05;;;;;;;;;;4973824;28;20018;-81
2021/04/08 05:53:37;;;;;;;10.13;1.67;;;;;;;;;;5002772;28;20103;-80
2021/04/08 05:56:04;;;;;;;11.00;2.13;;;;;;;;;;4964404;28;20088;-81
2021/04/08 05:58:31;;;;;;;12.07;2.42;;;;;;;;;;4986666;28;20113;-81
2021/04/08 06:00:58;;;;;;;12.50;2.05;;;;;;;;;;4982732;28;20138;-81
2021/04/08 06:03:27;;;;;;;10.43;2.25;;;;;;;;;;4983600;28;20450;-82
2021/04/08 06:05:53;;;;;;;8.95;1.88;;;;;;;;;;4989541;28;20117;-80
2021/04/08 06:08:19;;;;;;;12.07;2.17;;;;;;;;;;4972364;28;20045;-82
2021/04/08 06:10:46;;;;;;;8.30;1.88;;;;;;;;;;4967663;28;21586;-81
2021/04/08 06:13:14;;;;;;;12.15;2.38;;;;;;;;;;4957071;28;20185;-81
2021/04/08 06:15:41;;;;;;;12.80;2.33;;;;;;;;;;4967505;28;20824;-81
2021/04/08 06:18:08;;;;;;;11.45;2.22;;;;;;;;;;4955251;28;20466;-79
2021/04/08 06:20:34;;;;;;;10.73;2.35;;;;;;;;;;4973817;28;20064;-80
2021/04/08 06:23:06;;;;;;;11.85;2.30;;;;;;;;;;4981926;28;20066;-81
2021/04/08 06:25:33;;;;;;;10.10;2.20;;;;;;;;;;4989907;28;20120;-79
2021/04/08 06:28:00;;;;;;;11.00;2.42;;;;;;;;;;4984570;28;20046;-79
2021/04/08 06:30:29;;;;;;;10.02;2.28;;;;;;;;;;4947761;28;20042;-81
2021/04/08 06:32:57;;;;;;;13.27;2.63;;;;;;;;;;4982613;28;20051;-80
2021/04/08 06:35:25;;;;;;;11.57;2.50;;;;;;;;;;4978592;28;20042;-82
2021/04/08 06:37:52;;;;;;;12.15;2.70;;;;;;;;;;4955305;28;20103;-79
2021/04/08 06:40:22;;;;;;;11.02;2.55;;;;;;;;;;4963049;28;22054;-80
2021/04/08 06:42:52;;;;;;;10.90;2.53;;;;;;;;;;4975361;28;20041;-81
2021/04/08 06:45:21;;;;;;;11.50;3.08;;;;;;;;;;4987014;28;20100;-82
2021/04/08 06:48:09;;;;;;;10.43;2.17;;;;;;;;;;4971358;28;20065;-81
2021/04/08 06:50:38;;;;;;;13.65;2.50;;;;;;;;;;4955016;28;20612;-80
2021/04/08 06:53:07;;;;;;;12.23;2.45;;;;;;;;;;4982315;28;20056;-81
2021/04/08 06:55:34;;;;;;;11.93;2.38;;;;;;;;;;4986631;28;20053;-80
2021/04/08 06:58:08;;;;;;;10.45;1.92;;;;;;;;;;4966641;28;20046;-79
2021/04/08 07:00:36;;;;;;;10.43;2.20;;;;;;;;;;4975684;28;20038;-80
2021/04/08 07:03:05;;;;;;;11.50;2.33;;;;;;;;;;4985090;28;20125;-80
2021/04/08 07:05:32;;;;;;;15.45;2.70;;;;;;;;;;4973138;28;20684;-81
2021/04/08 07:08:03;;;;;;;10.70;2.30;;;;;;;;;;4984634;28;20034;-80
2021/04/08 07:10:32;;;;;;;14.20;2.30;;;;;;;;;;4969563;28;20054;-79
2021/04/08 07:12:58;;;;;;;15.40;3.15;;;;;;;;;;4987394;28;20041;-80
2021/04/08 07:15:27;;;;;;;13.73;2.53;;;;;;;;;;4984882;28;20161;-80
2021/04/08 07:17:53;;;;;;;12.57;2.33;;;;;;;;;;5012246;28;20026;-81
2021/04/08 07:20:19;;;;;;;10.93;2.28;;;;;;;;;;4999847;28;20122;-80
2021/04/08 07:22:46;;;;;;;11.25;1.75;;;;;;;;;;4982795;28;20030;-80
2021/04/08 07:25:13;;;;;;;;;;;;;;;;;;4976893;28;20045;-80
2021/04/08 07:27:40;;;;;;;17.52;2.25;;;;;;;;;;4985779;28;19922;-80
2021/04/08 07:30:08;;;;;;;12.15;2.25;;;;;;;;;;4979913;28;20213;-81
2021/04/08 07:32:37;;;;;;;8.35;1.70;;;;;;;;;;4975791;28;20169;-80
2021/04/08 07:35:15;;;;;;;11.38;2.08;;;;;;;;;;4968967;28;20104;-80
2021/04/08 07:37:44;;;;;;;13.55;1.90;;;;;;;;;;4988961;28;20037;-79
2021/04/08 07:40:21;;;;;;;15.05;2.58;;;;;;;;;;4968735;28;20050;-79
2021/04/08 07:42:47;;;;;;;13.20;2.60;;;;;;;;;;4989797;28;20121;-80
2021/04/08 07:45:14;;;;;;;;;;;;;;;;;;4983610;28;20025;-79
2021/04/08 07:47:43;;;;;;;10.83;1.80;;;;;;;;;;4991406;28;19906;-80
2021/04/08 07:50:15;;;;;;;10.05;1.92;;;;;;;;;;4965595;28;20065;-80
2021/04/08 07:52:51;;;;;;;9.20;1.60;;;;;;;;;;4974180;28;20073;-80
2021/04/08 07:55:30;;;;;;;9.38;1.85;;;;;;;;;;4980521;28;20045;-80
2021/04/08 07:58:16;;;;;;;10.80;2.00;;;;;;;;;;4969281;28;20042;-80
2021/04/08 08:00:43;;;;;;;13.40;2.13;;;;;;;;;;4972098;28;20029;-78
2021/04/08 08:03:30;;;;;;;10.00;1.80;;;;;;;;;;4966368;28;21027;-80
2021/04/08 08:05:58;;;;;;;9.05;1.80;;;;;;;;;;4989045;28;20512;-80
2021/04/08 08:08:36;;;;;;;9.70;1.83;;;;;;;;;;4940967;28;20045;-79
2021/04/08 08:11:15;;;;;;;10.82;1.88;;;;;;;;;;4982884;28;20045;-80
2021/04/08 08:13:48;;;;;;;7.38;1.65;;;;;;;;;;4985162;28;20045;-81
2021/04/08 08:16:22;;;;;;;7.45;1.45;;;;;;;;;;4981094;28;20041;-81
2021/04/08 08:18:50;;;;;;;7.68;1.20;;;;;;;;;;4984654;28;20136;-80
2021/04/08 08:21:30;;;;;;;10.18;1.85;;;;;;;;;;4981706;28;20752;-81
2021/04/08 08:23:58;;;;;;;8.85;1.40;;;;;;;;;;4989352;28;20486;-80
2021/04/08 08:26:38;;;;;;;8.57;1.67;;;;;;;;;;4951409;28;20046;-80
2021/04/08 08:29:19;;;;;;;10.90;1.60;;;;;;;;;;4979959;28;20051;-80
2021/04/08 08:31:55;;;;;;;8.85;1.90;;;;;;;;;;4933186;28;20373;-79
2021/04/08 08:34:22;;;;;;;8.90;1.85;;;;;;;;;;4952075;28;21448;-79
2021/04/08 08:36:55;;;;;;;15.05;1.95;;;;;;;;;;4945871;28;20518;-80
2021/04/08 08:39:24;;;;;;;9.95;1.63;;;;;;;;;;4930388;28;21828;-80
2021/04/08 08:41:54;;;;;;;10.25;1.63;;;;;;;;;;4951116;28;20035;-79
2021/04/08 08:44:21;;;;;;;9.82;2.00;;;;;;;;;;4923116;28;20039;-79
2021/04/08 08:46:54;;;;;;;10.85;1.77;;;;;;;;;;4945149;28;20056;-78
2021/04/08 08:49:26;;;;;;;7.95;1.77;;;;;;;;;;4962203;28;20720;-79
2021/04/08 08:51:55;;;;;;;7.55;1.58;;;;;;;;;;4944329;28;20081;-79
2021/04/08 08:54:22;;;;;;;10.63;2.28;;;;;;;;;;4948919;28;20030;-79
2021/04/08 08:56:49;;;;;;;9.27;1.67;;;;;;;;;;4958410;28;20033;-79
2021/04/08 08:59:16;;;;;;;8.75;1.88;;;;;;;;;;4934714;28;20705;-79
2021/04/08 09:01:44;;;;;;;7.70;1.40;;;;;;;;;;4957196;28;20038;-82
2021/04/08 09:04:10;;;;;;;8.55;1.42;;;;;;;;;;4952202;28;20044;-85
2021/04/08 09:06:43;;;;;;;12.93;1.80;;;;;;;;;;4949164;28;20030;-80
2021/04/08 09:09:14;;;;;;;10.88;1.80;;;;;;;;;;4959041;28;20217;-84
2021/04/08 09:11:44;;;;;;;8.35;1.48;;;;;;;;;;4948107;28;20027;-83
2021/04/08 09:14:11;;;;;;;7.18;1.50;;;;;;;;;;4960302;28;20061;-80
2021/04/08 09:16:45;;;;;;;8.07;1.60;;;;;;;;;;4958004;28;20038;-81
2021/04/08 09:19:13;;;;;;;8.30;1.77;;;;;;;;;;4956835;28;20042;-84
2021/04/08 09:21:50;;;;;;;10.43;3.10;;;;;;;;;;4966413;28;20056;-83
2021/04/08 09:24:37;;;;;;;9.38;1.75;;;;;;;;;;4957429;28;20039;-83
2021/04/08 09:27:04;;;;;;;10.88;1.95;;;;;;;;;;4970104;28;20038;-84
2021/04/08 09:30:10;;;;;;;7.97;1.40;;;;;;;;;;4964695;28;20058;-84
2021/04/08 09:32:30;;;;;;;9.15;1.90;;;;;;;;;;4976505;28;20057;-83
2021/04/08 09:35:03;;;;;;;13.18;2.10;;;;;;;;;;4969446;28;20533;-82
2021/04/08 09:37:51;;;;;;;5.63;1.50;;;;;;;;;;4952918;28;20042;-83
2021/04/08 09:40:30;;;;;;;9.73;2.05;;;;;;;;;;4954875;28;20093;-83
2021/04/08 09:43:02;;;;;;;9.73;1.95;;;;;;;;;;4952804;28;20036;-81
2021/04/08 09:45:31;;;;;;;9.48;2.00;;;;;;;;;;4962681;28;20596;-82
2021/04/08 09:48:10;;;;;;;8.60;2.08;;;;;;;;;;4953464;28;20105;-80
2021/04/08 09:50:47;;;;;;;8.55;2.67;;;;;;;;;;4970123;28;20066;-82
2021/04/08 09:53:14;;;;;;;9.05;2.25;;;;;;;;;;4941871;28;20134;-81
2021/04/08 09:55:43;;;;;;;8.85;2.00;;;;;;;;;;4952755;28;20053;-81
2021/04/08 09:58:10;;;;;;;11.60;2.45;;;;;;;;;;4906406;28;20047;-82
2021/04/08 10:00:40;;;;;;;8.38;2.20;;;;;;;;;;4952199;28;20089;-81
2021/04/08 10:03:08;;;;;;;12.18;2.35;;;;;;;;;;4960824;28;20041;-82
2021/04/08 10:05:42;;;;;;;10.82;2.10;;;;;;;;;;4950613;28;20026;-81
2021/04/08 10:08:12;;;;;;;10.88;2.60;;;;;;;;;;4918156;28;20046;-80
2021/04/08 10:10:45;;;;;;;7.65;1.75;;;;;;;;;;4947810;28;20057;-81
2021/04/08 10:13:15;;;;;;;10.30;2.38;;;;;;;;;;4905867;28;20067;-82
2021/04/08 10:15:43;;;;;;;8.50;1.58;;;;;;;;;;4940413;28;20042;-82
2021/04/08 10:18:14;;;;;;;8.30;2.17;;;;;;;;;;4956240;28;20084;-82
2021/04/08 10:20:44;;;;;;;13.07;3.63;;;;;;;;;;4965770;28;20026;-82
2021/04/08 10:23:12;;;;;;;9.98;2.50;;;;;;;;;;4957319;28;20042;-82
2021/04/08 10:25:40;;;;;;;8.73;1.83;;;;;;;;;;4944068;28;20491;-82
2021/04/08 10:28:08;;;;;;;7.80;1.88;;;;;;;;;;4964685;28;20038;-82
2021/04/08 10:30:42;;;;;;;8.05;2.08;;;;;;;;;;4944212;28;20105;-83
2021/04/08 10:33:22;;;;;;;6.75;1.85;;;;;;;;;;4938826;28;20029;-82
2021/04/08 10:35:50;;;;;;;9.60;2.78;;;;;;;;;;4956155;28;20471;-82
2021/04/08 10:38:21;;;;;;;8.32;1.80;;;;;;;;;;4925233;28;20132;-82
2021/04/08 10:41:03;;;;;;;8.65;1.58;;;;;;;;;;4949078;28;20046;-84
2021/04/08 10:43:31;;;;;;;9.68;2.47;;;;;;;;;;4961988;28;21133;-80
2021/04/08 10:45:59;;;;;;;10.18;2.13;;;;;;;;;;4952472;28;20173;-83
2021/04/08 10:48:31;;;;;;;11.25;2.00;;;;;;;;;;4973308;28;20039;-84
2021/04/08 10:50:58;;;;;;;10.05;2.40;;;;;;;;;;4979978;28;20034;-85
2021/04/08 10:53:27;;;;;;;6.10;1.70;;;;;;;;;;4940439;28;20039;-84
2021/04/08 10:56:02;;;;;;;10.18;2.05;;;;;;;;;;4951020;28;20038;-84
2021/04/08 10:58:33;;;;;;;8.57;2.15;;;;;;;;;;4949425;28;20034;-85
2021/04/08 11:01:04;;;;;;;8.23;2.10;;;;;;;;;;4910342;28;20045;-84
2021/04/08 11:03:31;;;;;;;8.52;1.80;;;;;;;;;;4939987;28;20193;-85
2021/04/08 11:05:59;;;;;;;10.23;1.73;;;;;;;;;;4950479;28;20030;-85
2021/04/08 11:08:26;;;;;;;10.45;1.95;;;;;;;;;;4912819;28;20131;-85
2021/04/08 11:10:55;;;;;;;6.32;1.38;;;;;;;;;;4911779;28;20036;-85
2021/04/08 11:13:35;;;;;;;8.80;1.70;;;;;;;;;;4894750;28;20697;-82
2021/04/08 11:16:05;;;;;;;10.00;2.00;;;;;;;;;;4882046;29;20627;-80
2021/04/08 11:18:38;;;;;;;7.68;1.80;;;;;;;;;;4898111;29;20122;-82
2021/04/08 11:21:09;;;;;;;7.03;1.42;;;;;;;;;;4869730;29;20163;-81
2021/04/08 11:23:39;;;;;;;10.93;2.30;;;;;;;;;;4893631;28;20143;-82
2021/04/08 11:26:08;;;;;;;8.50;1.98;;;;;;;;;;4891107;28;20051;-81
2021/04/08 11:28:41;;;;;;;8.10;1.92;;;;;;;;;;4872135;29;20048;-82
2021/04/08 11:31:15;;;;;;;8.00;2.00;;;;;;;;;;4889587;28;20466;-82
2021/04/08 11:33:43;;;;;;;12.77;1.75;;;;;;;;;;4894152;28;20146;-83
2021/04/08 11:36:22;;;;;;;8.40;1.60;;;;;;;;;;4878908;28;20050;-83
2021/04/08 11:38:50;;;;;;;7.93;1.83;;;;;;;;;;4899922;28;20517;-82
2021/04/08 11:41:19;;;;;;;8.82;2.17;;;;;;;;;;4843933;29;20048;-82
2021/04/08 11:43:59;;;;;;;10.38;2.25;;;;;;;;;;4854525;29;20210;-82
2021/04/08 11:46:37;;;;;;;8.82;1.90;;;;;;;;;;4852687;29;20188;-82
2021/04/08 11:49:25;;;;;;;7.32;1.60;;;;;;;;;;4852395;29;20036;-83
2021/04/08 11:52:11;;;;;;;6.97;1.75;;;;;;;;;;4883569;29;20512;-82
2021/04/08 11:55:01;;;;;;;8.40;2.00;;;;;;;;;;4905616;28;20800;-81
2021/04/08 11:57:30;;;;;;;11.55;2.83;;;;;;;;;;4894697;28;20040;-82
2021/04/08 12:00:03;;;;;;;9.48;2.10;;;;;;;;;;4906797;29;20115;-83
2021/04/08 12:02:37;;;;;;;8.38;2.03;;;;;;;;;;4936192;28;20045;-83
2021/04/08 12:05:12;;;;;;;8.25;2.30;;;;;;;;;;4930336;28;20046;-85
2021/04/08 12:07:49;;;;;;;9.90;2.08;;;;;;;;;;4927324;28;20043;-82
2021/04/08 12:10:33;;;;;;;9.13;2.00;;;;;;;;;;4875634;28;20031;-85
2021/04/08 12:13:05;;;;;;;6.57;1.70;;;;;;;;;;4944932;28;20035;-82
2021/04/08 12:15:46;;;;;;;14.15;6.07;;;;;;;;;;4927282;28;20039;-84
2021/04/08 12:18:24;;;;;;;12.73;5.55;;;;;;;;;;4914298;28;20038;-84
2021/04/08 12:20:53;;;;;;;9.75;3.65;;;;;;;;;;4951380;28;20090;-82
2021/04/08 12:23:22;;;;;;;12.77;4.90;;;;;;;;;;4918503;28;20089;-83
2021/04/08 12:25:57;;;;;;;9.38;4.07;;;;;;;;;;4920175;28;20137;-84
2021/04/08 12:28:29;;;;;;;12.70;4.20;;;;;;;;;;4920346;28;20516;-83
2021/04/08 12:31:03;;;;;;;11.27;3.00;;;;;;;;;;4909999;28;20079;-82
2021/04/08 12:33:40;;;;;;;8.02;2.45;;;;;;;;;;4909793;28;20074;-82
2021/04/08 12:36:10;;;;;;;6.93;2.35;;;;;;;;;;4901448;28;20047;-83
2021/04/08 12:38:39;;;;;;;10.88;4.00;;;;;;;;;;4954684;28;20046;-82
2021/04/08 12:41:06;;;;;;;10.48;3.33;;;;;;;;;;4937625;28;20092;-83
2021/04/08 12:43:34;;;;;;;7.13;1.83;;;;;;;;;;4939866;28;20038;-82
2021/04/08 12:46:07;;;;;;;6.95;1.90;;;;;;;;;;4961572;28;20237;-83
2021/04/08 12:48:36;;;;;;;5.43;1.23;;;;;;;;;;4944846;28;20039;-82
2021/04/08 12:51:09;;;;;;;7.72;1.73;;;;;;;;;;4950324;28;20053;-83
2021/04/08 12:53:38;;;;;;;8.75;2.88;;;;;;;;;;4945834;28;20038;-92
2021/04/08 12:56:09;;;;;;;6.03;1.42;;;;;;;;;;4899242;28;20110;-91
2021/04/08 12:58:36;;;;;;;7.90;2.30;;;;;;;;;;4939314;28;20043;-92
2021/04/08 13:01:03;;;;;;;10.15;2.92;;;;;;;;;;4913160;28;20039;-89
2021/04/08 13:03:32;;;;;;;9.38;2.03;;;;;;;;;;4944206;28;20033;-90
2021/04/08 13:06:04;;;;;;;10.73;2.10;;;;;;;;;;4946081;28;20055;-92
2021/04/08 13:08:52;;;;;;;11.10;3.95;;;;;;;;;;4962535;28;20030;-91
2021/04/08 13:11:21;;;;;;;12.20;5.85;;;;;;;;;;4909053;28;20032;-86
2021/04/08 13:13:54;;;;;;;11.52;5.90;;;;;;;;;;4906950;29;20067;-83
2021/04/08 13:16:23;;;;;;;17.20;8.57;;;;;;;;;;4886564;29;20043;-83
2021/04/08 13:18:50;;;;;;;28.88;22.17;;;;;;;;;;4885348;28;20052;-81
2021/04/08 13:21:19;;;;;;;12.82;5.88;;;;;;;;;;4887457;29;20043;-83
2021/04/08 13:23:48;;;;;;;10.18;1.60;;;;;;;;;;4904745;28;20036;-82
2021/04/08 13:26:17;;;;;;;10.85;2.25;;;;;;;;;;4899483;28;20044;-82
2021/04/08 13:28:46;;;;;;;6.22;1.80;;;;;;;;;;4903590;28;20039;-82
2021/04/08 13:31:14;;;;;;;6.30;1.27;;;;;;;;;;4898357;28;20123;-82
2021/04/08 13:33:42;;;;;;;6.10;1.27;;;;;;;;;;4873777;28;20058;-82
2021/04/08 13:36:09;;;;;;;6.00;2.05;;;;;;;;;;4877625;28;20034;-82
2021/04/08 13:38:37;;;;;;;8.38;1.65;;;;;;;;;;4889195;29;20798;-81
2021/04/08 13:41:05;;;;;;;8.90;3.47;;;;;;;;;;4842198;29;20575;-80
2021/04/08 13:43:32;;;;;;;12.57;1.92;;;;;;;;;;4870381;28;20565;-82
2021/04/08 13:46:03;;;;;;;7.07;1.95;;;;;;;;;;4891592;29;20639;-82
2021/04/08 13:48:31;;;;;;;8.15;2.20;;;;;;;;;;4888455;28;20036;-81
2021/04/08 13:50:57;;;;;;;10.00;1.63;;;;;;;;;;4897368;29;20190;-81
2021/04/08 13:53:25;;;;;;;6.38;1.40;;;;;;;;;;4889611;29;21647;-80
2021/04/08 13:55:54;;;;;;;6.82;1.58;;;;;;;;;;4907304;28;20075;-81
2021/04/08 13:58:21;;;;;;;7.10;1.20;;;;;;;;;;4936805;28;20137;-82
2021/04/08 14:00:48;;;;;;;6.35;1.38;;;;;;;;;;4939757;28;20038;-81
2021/04/08 14:03:16;;;;;;;5.47;1.25;;;;;;;;;;4851215;29;20050;-81
2021/04/08 14:05:44;;;;;;;5.40;1.60;;;;;;;;;;4908129;29;20058;-82
2021/04/08 14:08:15;;;;;;;7.88;1.80;;;;;;;;;;4904146;28;20028;-82
2021/04/08 14:10:44;;;;;;;8.65;1.75;;;;;;;;;;4893326;29;20036;-82
2021/04/08 14:13:12;;;;;;;8.60;1.58;;;;;;;;;;4891372;28;20577;-82
2021/04/08 14:15:43;;;;;;;9.02;1.58;;;;;;;;;;4884232;29;20780;-82
2021/04/08 14:18:12;;;;;;;8.15;1.50;;;;;;;;;;4882554;28;20073;-83
2021/04/08 14:20:39;;;;;;;7.30;1.63;;;;;;;;;;4870467;29;20226;-83
2021/04/08 14:23:09;;;;;;;10.57;1.55;;;;;;;;;;4894814;28;20128;-82
2021/04/08 14:25:38;;;;;;;9.10;1.55;;;;;;;;;;4888955;29;20036;-81
2021/04/08 14:28:06;;;;;;;8.52;1.50;;;;;;;;;;4901095;28;20048;-80
2021/04/08 14:30:35;;;;;;;7.32;1.40;;;;;;;;;;4865942;29;20230;-81
2021/04/08 14:33:04;;;;;;;8.50;1.85;;;;;;;;;;4884564;29;20030;-81
2021/04/08 14:35:33;;;;;;;8.15;1.70;;;;;;;;;;4912471;29;20051;-82
2021/04/08 14:38:00;;;;;;;7.35;1.40;;;;;;;;;;4908324;28;20545;-82
2021/04/08 14:40:28;;;;;;;11.68;1.85;;;;;;;;;;4932504;28;20938;-83
2021/04/08 14:42:57;;;;;;;7.90;1.67;;;;;;;;;;4938476;28;21101;-82
2021/04/08 14:45:26;;;;;;;6.70;1.60;;;;;;;;;;4931960;28;20498;-82
2021/04/08 14:47:54;;;;;;;7.53;1.85;;;;;;;;;;4950885;28;20050;-82
2021/04/08 14:50:21;;;;;;;9.68;2.20;;;;;;;;;;4927313;28;20528;-81
2021/04/08 14:52:49;;;;;;;11.43;1.73;;;;;;;;;;4964959;28;20046;-83
2021/04/08 14:55:16;;;;;;;9.23;1.95;;;;;;;;;;4913324;28;20175;-82
2021/04/08 14:57:43;;;;;;;9.15;2.67;;;;;;;;;;4952003;28;20502;-83
2021/04/08 15:00:11;;;;;;;10.30;2.92;;;;;;;;;;4948788;28;20036;-82
2021/04/08 15:02:42;;;;;;;10.10;3.30;;;;;;;;;;4956387;28;20058;-83
2021/04/08 15:05:11;;;;;;;6.53;2.08;;;;;;;;;;4935092;28;20868;-83
2021/04/08 15:07:39;;;;;;;10.77;1.70;;;;;;;;;;4939684;28;20091;-82
2021/04/08 15:10:08;;;;;;;10.93;2.55;;;;;;;;;;4955541;28;20050;-82
2021/04/08 15:12:38;;;;;;;7.97;1.77;;;;;;;;;;4964350;28;20030;-83
2021/04/08 15:15:10;;;;;;;9.07;1.90;;;;;;;;;;4952603;28;20034;-82
2021/04/08 15:17:38;;;;;;;10.98;2.90;;;;;;;;;;4971837;28;20044;-83
2021/04/08 15:20:06;;;;;;;9.07;1.70;;;;;;;;;;4883769;28;20044;-83
2021/04/08 15:22:33;;;;;;;9.57;2.25;;;;;;;;;;4891382;28;20099;-81
2021/04/08 15:25:02;;;;;;;8.32;1.95;;;;;;;;;;4922270;28;20043;-83
2021/04/08 15:27:30;;;;;;;10.32;3.10;;;;;;;;;;4923317;28;20090;-83
2021/04/08 15:29:59;;;;;;;8.93;2.15;;;;;;;;;;4926855;28;20037;-84
2021/04/08 15:32:26;;;;;;;6.25;1.48;;;;;;;;;;4920500;28;20036;-82